Jefferson, NC

11:58 PM EDT on July 26, 2017 (GMT -0400)
Ashe County

Weather History for KGEV - August, 2013

Change the Weather History Date:

Friday, August 23, 2013

  Actual Average Record
Temperature  
Mean Temperature 68 °F -  
Max Temperature 75 °F 78 °F 93 °F (1983)
Min Temperature 61 °F 56 °F 45 °F (1969)
Cooling Degree Days 3    
Growing Degree Days 18 (Base 50)    
Moisture  
Dew Point 60 °F    
Average Humidity 75    
Maximum Humidity 93    
Minimum Humidity 54    
Precipitation  
Precipitation 0.08 in - - ()
Sea Level Pressure  
Sea Level Pressure 30.17 in    
Wind  
Wind Speed 4 mph (NW)    
Max Wind Speed 13 mph    
Max Gust Speed 22 mph    
Visibility 9 miles    
Events Rain    
Averages and records for this station are not official NWS values.
T = Trace of Precipitation, MM = Missing Value Source: NWS Daily Summary

Daily Weather History Graph

Daily Weather History Graph

Search for Another Location

Airport or City:

Trip Planner

Search our weather history database for the weather conditions in past years. The results will help you decide how hot, cold, wet, or windy it might be!

Date:

Astronomy

Aug. 23, 2013 Rise Set
Actual Time 6:50 AM EDT 8:05 PM EDT
Civil Twilight 6:23 AM EDT 8:32 PM EDT
Nautical Twilight 5:51 AM EDT 9:04 PM EDT
Astronomical Twilight 5:17 AM EDT 9:37 PM EDT
Moon 9:31 PM EDT (8/23) 9:37 AM EDT (8/23)
Length of Visible Light 14h 09m
Length of Day
13h 15m
Waning Gibbous, 91% of the Moon is Illuminated
Aug 23
Waning Gibbous
Aug 28
Last Quarter
Sep 5
New
Sep 12
First Quarter
Sep 19
Full

Hourly Weather History & Observations

Time (EDT) Temp. Dew Point Humidity Pressure Visibility Wind Dir Wind Speed Gust Speed Precip Events Conditions
12:15 AM 65.7 °F 60.3 °F 83% 30.20 in 7.0 mi Calm Calm - N/A   Overcast
12:35 AM 66.2 °F 61.9 °F 86% 30.20 in 10.0 mi Calm Calm - N/A   Mostly Cloudy
12:55 AM 66.2 °F 62.1 °F 86% 30.19 in 10.0 mi Calm Calm - N/A   Scattered Clouds
1:15 AM 65.3 °F 61.9 °F 89% 30.18 in 10.0 mi Calm Calm - N/A   Clear
1:35 AM 64.9 °F 61.9 °F 90% 30.18 in 7.0 mi Calm Calm - N/A   Clear
1:55 AM 64.9 °F 62.4 °F 92% 30.17 in 7.0 mi WSW 3.5 mph - N/A   Clear
2:15 AM 65.5 °F 62.1 °F 89% 30.17 in 10.0 mi WSW 3.5 mph - N/A   Clear
2:35 AM 65.5 °F 61.9 °F 88% 30.16 in 10.0 mi West 3.5 mph - N/A   Clear
2:55 AM 64.2 °F 61.5 °F 91% 30.14 in 7.0 mi Calm Calm - N/A   Clear
3:15 AM 65.7 °F 61.3 °F 86% 30.14 in 4.0 mi SSW 4.6 mph - N/A   Haze
3:35 AM 64.4 °F 61.9 °F 92% 30.14 in 10.0 mi West 4.6 mph - N/A   Scattered Clouds
3:55 AM 62.6 °F 59.9 °F 91% 30.14 in 1.5 mi Calm Calm - N/A   Mist
4:15 AM 64.8 °F 62.6 °F 93% 30.14 in 10.0 mi Calm Calm - N/A   Clear
4:35 AM 65.7 °F 62.1 °F 88% 30.14 in 10.0 mi West 8.1 mph - N/A   Clear
4:55 AM 68.0 °F 62.2 °F 82% 30.14 in 10.0 mi West 10.4 mph - N/A   Clear
5:15 AM 67.8 °F 62.1 °F 82% 30.14 in 7.0 mi West 9.2 mph - N/A   Clear
5:35 AM 67.5 °F 62.1 °F 83% 30.14 in 7.0 mi WNW 9.2 mph - N/A   Clear
5:55 AM 68.0 °F 61.9 °F 81% 30.15 in 10.0 mi West 6.9 mph - N/A   Scattered Clouds
6:15 AM 68.0 °F 61.3 °F 79% 30.15 in 10.0 mi WNW 8.1 mph 19.6 mph N/A   Mostly Cloudy
6:35 AM 67.6 °F 61.5 °F 81% 30.15 in 10.0 mi WNW 5.8 mph - N/A   Overcast
6:55 AM 67.3 °F 60.8 °F 80% 30.15 in 10.0 mi NW 9.2 mph - N/A   Mostly Cloudy
7:15 AM 67.8 °F 59.7 °F 75% 30.15 in 10.0 mi WNW 9.2 mph 19.6 mph N/A   Scattered Clouds
7:35 AM 68.2 °F 59.5 °F 74% 30.16 in 10.0 mi WNW 10.4 mph 19.6 mph N/A   Scattered Clouds
7:55 AM 68.5 °F 59.2 °F 72% 30.16 in 10.0 mi West 9.2 mph 20.7 mph N/A   Mostly Cloudy
8:15 AM 68.7 °F 59.2 °F 72% 30.17 in 10.0 mi NW 5.8 mph - N/A   Overcast
8:35 AM 69.3 °F 59.5 °F 71% 30.17 in 10.0 mi West 4.6 mph - N/A   Mostly Cloudy
8:55 AM 70.0 °F 60.1 °F 71% 30.17 in 10.0 mi NW 6.9 mph - N/A   Mostly Cloudy
9:15 AM 69.8 °F 60.1 °F 71% 30.17 in 10.0 mi NW 9.2 mph - N/A   Overcast
9:35 AM 70.9 °F 60.6 °F 70% 30.17 in 10.0 mi NNW 6.9 mph - N/A   Overcast
9:55 AM 70.7 °F 60.8 °F 71% 30.18 in 10.0 mi NW 6.9 mph - N/A   Overcast
10:15 AM 70.7 °F 61.0 °F 71% 30.18 in 10.0 mi NNW 6.9 mph - N/A   Overcast
10:35 AM 70.0 °F 61.5 °F 74% 30.18 in 10.0 mi NNW 4.6 mph - N/A   Overcast
10:55 AM 70.0 °F 61.7 °F 75% 30.19 in 10.0 mi NNW 3.5 mph - N/A   Overcast
11:15 AM 70.5 °F 61.2 °F 72% 30.20 in 10.0 mi NNW 5.8 mph - N/A   Overcast
11:35 AM 68.4 °F 62.1 °F 80% 30.21 in 7.0 mi North 10.4 mph - N/A Rain Light Rain
11:55 AM 61.7 °F 55.2 °F 79% 30.21 in 4.0 mi NNW 5.8 mph 21.9 mph 0.06 in Rain Heavy Rain
12:15 PM 61.0 °F 58.5 °F 91% 30.21 in 2.5 mi Calm Calm - 0.02 in Rain Light Rain
12:35 PM 62.4 °F 58.5 °F 87% 30.19 in 7.0 mi West 4.6 mph - 0.02 in   Overcast
12:55 PM 64.8 °F 60.6 °F 86% 30.19 in 10.0 mi WSW 4.6 mph - 0.02 in   Light Drizzle
1:15 PM 66.9 °F 62.1 °F 84% 30.18 in 10.0 mi Calm Calm - N/A   Overcast
1:35 PM 70.5 °F 60.8 °F 71% 30.17 in 10.0 mi NW 8.1 mph - N/A   Mostly Cloudy
1:55 PM 70.2 °F 60.3 °F 71% 30.17 in 10.0 mi NW 10.4 mph - N/A   Scattered Clouds
2:15 PM 70.5 °F 61.0 °F 72% 30.15 in 10.0 mi West 4.6 mph - N/A   Clear
2:35 PM 73.9 °F 61.3 °F 65% 30.15 in 10.0 mi NW 3.5 mph - N/A   Scattered Clouds
2:55 PM 73.0 °F 59.5 °F 62% 30.15 in 10.0 mi WNW 6.9 mph - N/A   Clear
3:15 PM 73.9 °F 58.8 °F 59% 30.14 in 10.0 mi NW 6.9 mph - N/A   Scattered Clouds
3:35 PM 75.2 °F 59.2 °F 57% 30.13 in 10.0 mi NW 10.4 mph - N/A   Scattered Clouds
3:55 PM 73.9 °F 58.3 °F 58% 30.13 in 10.0 mi NNW 12.7 mph 17.3 mph N/A   Scattered Clouds
4:15 PM 74.3 °F 57.0 °F 55% 30.13 in 10.0 mi NNW 12.7 mph 17.3 mph N/A   Clear
4:35 PM 73.9 °F 56.3 °F 54% 30.13 in 10.0 mi NW 8.1 mph 17.3 mph N/A   Clear
4:55 PM 73.6 °F 57.2 °F 56% 30.13 in 10.0 mi WNW 8.1 mph - N/A   Scattered Clouds
5:15 PM 73.4 °F 56.7 °F 56% 30.12 in 10.0 mi NW 8.1 mph 18.4 mph N/A   Clear
5:35 PM 72.5 °F 57.4 °F 59% 30.13 in 10.0 mi NW 6.9 mph 16.1 mph N/A   Clear
5:55 PM 72.5 °F 57.7 °F 60% 30.13 in 10.0 mi WNW 8.1 mph 17.3 mph N/A   Clear
6:15 PM 72.9 °F 57.9 °F 59% 30.13 in 10.0 mi WNW 9.2 mph - N/A   Clear
6:35 PM 72.5 °F 58.1 °F 60% 30.13 in 10.0 mi WNW 8.1 mph - N/A   Clear
6:55 PM 72.1 °F 58.3 °F 62% 30.13 in 10.0 mi WNW 6.9 mph - N/A   Clear
7:15 PM 71.4 °F 58.5 °F 64% 30.14 in 10.0 mi WNW 9.2 mph - N/A   Clear
7:35 PM 70.9 °F 58.3 °F 64% 30.14 in 10.0 mi NW 6.9 mph - N/A   Clear
7:55 PM 70.3 °F 58.5 °F 66% 30.16 in 10.0 mi NW 5.8 mph - N/A   Clear
8:15 PM 68.9 °F 59.0 °F 71% 30.17 in 10.0 mi NNW 3.5 mph - N/A   Clear
8:35 PM 68.9 °F 59.2 °F 71% 30.18 in 10.0 mi Calm Calm - N/A   Clear
8:55 PM 68.0 °F 59.2 °F 73% 30.18 in 10.0 mi NW 3.5 mph - N/A   Clear
9:15 PM 67.6 °F 59.4 °F 75% 30.19 in 10.0 mi NW 4.6 mph - N/A   Scattered Clouds
9:35 PM 68.0 °F 59.4 °F 74% 30.19 in 10.0 mi NW 4.6 mph - N/A   Scattered Clouds
9:55 PM 68.0 °F 59.0 °F 73% 30.20 in 10.0 mi NW 5.8 mph - N/A   Mostly Cloudy
10:15 PM 68.0 °F 59.0 °F 73% 30.21 in 10.0 mi Calm Calm - N/A   Mostly Cloudy
10:35 PM 67.8 °F 59.0 °F 73% 30.21 in 10.0 mi NE 3.5 mph - N/A   Mostly Cloudy
10:55 PM 65.8 °F 59.9 °F 81% 30.21 in 10.0 mi NNW 3.5 mph - N/A   Mostly Cloudy
11:15 PM 65.3 °F 59.9 °F 83% 30.21 in 10.0 mi NW 3.5 mph - N/A   Scattered Clouds
11:35 PM 64.4 °F 61.2 °F 89% 30.22 in 10.0 mi NNE 3.5 mph - N/A   Scattered Clouds
11:55 PM 64.0 °F 61.0 °F 90% 30.22 in 10.0 mi NE 3.5 mph - N/A   Overcast